createdAt,value
2024-04-30T00:00:12.804Z,13.10
2024-04-30T00:03:54.873Z,13.10
2024-04-30T00:07:38.915Z,13.10
2024-04-30T00:11:20.958Z,13.10
2024-04-30T00:15:03.170Z,13.10
2024-04-30T00:18:45.147Z,13.10
2024-04-30T00:22:27.621Z,13.10
2024-04-30T00:26:12.179Z,13.10
2024-04-30T00:29:54.109Z,13.00
2024-04-30T00:33:36.208Z,13.10
2024-04-30T00:37:18.205Z,13.00
2024-04-30T00:41:00.141Z,13.00
2024-04-30T00:44:42.145Z,13.00
2024-04-30T00:48:27.238Z,13.00
2024-04-30T00:52:10.006Z,13.00
2024-04-30T00:55:52.609Z,13.00
2024-04-30T00:59:34.534Z,13.00
2024-04-30T01:03:16.588Z,12.90
2024-04-30T01:06:58.885Z,12.90
2024-04-30T01:10:40.903Z,12.90
2024-04-30T01:14:22.840Z,12.90
2024-04-30T01:18:06.074Z,12.80
2024-04-30T01:21:48.389Z,12.80
2024-04-30T01:25:30.496Z,12.80
2024-04-30T01:29:12.573Z,12.70
2024-04-30T01:32:55.542Z,12.70
2024-04-30T01:36:37.569Z,12.60
2024-04-30T01:40:19.627Z,12.60
2024-04-30T01:44:01.571Z,12.50
2024-04-30T01:47:43.532Z,12.40
2024-04-30T01:51:25.528Z,12.20
2024-04-30T01:55:09.156Z,12.20
2024-04-30T01:58:51.573Z,12.10
2024-04-30T02:02:33.527Z,12.00
2024-04-30T02:06:15.540Z,11.90
2024-04-30T02:09:57.671Z,11.90
2024-04-30T02:13:39.688Z,11.80
2024-04-30T02:17:24.368Z,11.70
2024-04-30T02:21:06.374Z,11.60
2024-04-30T02:24:48.274Z,11.60
2024-04-30T02:28:30.885Z,11.50
2024-04-30T02:32:31.770Z,11.50
2024-04-30T02:36:14.644Z,11.50
2024-04-30T02:39:56.604Z,11.40
2024-04-30T02:43:38.644Z,11.30
2024-04-30T02:47:20.601Z,11.30
2024-04-30T02:51:03.548Z,11.20
2024-04-30T02:54:46.582Z,11.20
2024-04-30T02:58:28.581Z,11.10
2024-04-30T03:02:10.565Z,11.10
2024-04-30T03:05:54.041Z,11.10
2024-04-30T03:09:35.906Z,11.10
2024-04-30T03:13:18.137Z,11.10
2024-04-30T03:17:00.099Z,11.00
2024-04-30T03:20:42.053Z,11.00
2024-04-30T03:24:23.997Z,11.10
2024-04-30T03:28:06.153Z,11.00
2024-04-30T03:31:48.044Z,11.00
2024-04-30T03:35:30.052Z,11.00
2024-04-30T03:39:12.664Z,11.00
2024-04-30T03:42:54.737Z,11.00
2024-04-30T03:46:36.736Z,10.90
2024-04-30T03:50:18.805Z,10.90
2024-04-30T03:54:00.745Z,10.90
2024-04-30T03:57:42.729Z,10.90
2024-04-30T04:01:24.720Z,10.90
2024-04-30T04:05:06.876Z,10.90
2024-04-30T04:08:48.802Z,10.90
2024-04-30T04:12:49.160Z,10.90
2024-04-30T04:16:31.214Z,10.80
2024-04-30T04:20:13.430Z,10.80
2024-04-30T04:23:55.348Z,10.80
2024-04-30T04:27:37.365Z,10.80
2024-04-30T04:31:19.238Z,10.80
2024-04-30T04:35:01.137Z,10.80
2024-04-30T04:38:43.276Z,10.90
2024-04-30T04:42:25.531Z,10.80
2024-04-30T04:46:07.506Z,10.90
2024-04-30T04:49:49.599Z,11.00
2024-04-30T04:53:32.061Z,11.00
2024-04-30T04:57:14.038Z,11.00
2024-04-30T05:00:56.004Z,11.10
2024-04-30T05:04:38.008Z,11.10
2024-04-30T05:08:20.095Z,11.10
2024-04-30T05:12:02.164Z,11.20
2024-04-30T05:15:44.074Z,11.30
2024-04-30T05:19:26.142Z,11.20
2024-04-30T05:23:08.469Z,11.30
2024-04-30T05:26:50.389Z,11.40
2024-04-30T05:30:32.338Z,11.40
2024-04-30T05:34:14.277Z,11.40
2024-04-30T05:37:56.192Z,11.50
2024-04-30T05:41:38.112Z,11.50
2024-04-30T05:45:20.071Z,11.60
2024-04-30T05:49:02.059Z,11.60
2024-04-30T05:52:43.997Z,11.70
2024-04-30T05:56:26.065Z,11.70
2024-04-30T06:00:08.895Z,11.70
2024-04-30T06:03:50.880Z,11.80
2024-04-30T06:07:32.822Z,11.80
2024-04-30T06:11:14.887Z,11.80
2024-04-30T06:14:56.854Z,11.90
2024-04-30T06:18:38.884Z,11.90
2024-04-30T06:22:21.181Z,11.90
2024-04-30T06:26:04.441Z,12.00
2024-04-30T06:29:46.457Z,12.10
2024-04-30T06:33:28.453Z,12.20
2024-04-30T06:37:10.432Z,12.20
2024-04-30T06:40:52.379Z,12.40
2024-04-30T06:44:34.873Z,12.50
2024-04-30T06:48:16.926Z,12.60
2024-04-30T06:51:58.870Z,12.70
2024-04-30T06:55:40.948Z,12.80
2024-04-30T06:59:22.880Z,12.90
2024-04-30T07:03:05.357Z,13.00
2024-04-30T07:06:47.327Z,13.10
2024-04-30T07:10:29.365Z,13.20
2024-04-30T07:14:11.264Z,13.40
2024-04-30T07:17:53.541Z,13.50
2024-04-30T07:21:39.440Z,13.60
2024-04-30T07:25:21.440Z,13.70
2024-04-30T07:29:07.654Z,13.80
2024-04-30T07:32:52.310Z,14.00
2024-04-30T07:36:34.365Z,14.10
2024-04-30T07:40:16.587Z,14.20
2024-04-30T07:43:58.498Z,14.40
2024-04-30T07:47:40.562Z,14.50
2024-04-30T07:51:22.615Z,14.40
2024-04-30T07:55:04.927Z,14.50
2024-04-30T07:58:46.905Z,14.50
2024-04-30T08:02:28.923Z,14.50
2024-04-30T08:06:18.335Z,14.60
2024-04-30T08:10:04.816Z,14.70
2024-04-30T08:13:47.411Z,14.80
2024-04-30T08:17:29.469Z,14.80
2024-04-30T08:21:11.463Z,14.80
2024-04-30T08:24:53.457Z,14.80
2024-04-30T08:28:35.761Z,14.90
2024-04-30T08:32:18.305Z,15.00
2024-04-30T08:36:00.222Z,15.00
2024-04-30T08:39:42.202Z,15.20
2024-04-30T08:43:25.751Z,15.30
2024-04-30T08:47:09.031Z,15.40
2024-04-30T08:54:43.224Z,15.70
2024-04-30T08:58:25.226Z,15.80
2024-04-30T09:02:08.137Z,15.90
2024-04-30T09:05:50.871Z,15.90
2024-04-30T09:09:39.385Z,15.90
2024-04-30T09:13:34.069Z,15.90
2024-04-30T09:17:25.854Z,15.90
2024-04-30T09:21:16.546Z,16.00
2024-04-30T09:24:59.473Z,16.10
2024-04-30T09:28:43.634Z,16.30
2024-04-30T09:32:25.729Z,16.40
2024-04-30T09:36:10.252Z,16.60
2024-04-30T09:39:54.445Z,16.80
2024-04-30T09:43:36.708Z,17.00
2024-04-30T09:47:20.304Z,17.10
2024-04-30T09:51:13.210Z,17.10
2024-04-30T09:54:56.483Z,17.20
2024-04-30T09:58:40.263Z,17.20
2024-04-30T10:02:25.950Z,17.20
2024-04-30T10:06:09.703Z,17.40
2024-04-30T10:09:55.711Z,17.60
2024-04-30T10:13:54.683Z,17.70
2024-04-30T10:17:41.735Z,17.80
2024-04-30T10:21:33.803Z,17.80
2024-04-30T10:25:23.072Z,17.80
2024-04-30T10:29:05.850Z,17.80
2024-04-30T10:32:47.802Z,18.00
2024-04-30T10:36:29.841Z,18.60
2024-04-30T10:40:13.122Z,18.90
2024-04-30T10:44:03.216Z,19.40
2024-04-30T10:47:45.267Z,19.70
2024-04-30T10:51:27.558Z,20.00
2024-04-30T10:55:12.206Z,20.50
2024-04-30T10:58:58.121Z,21.10
2024-04-30T11:02:42.096Z,21.90
2024-04-30T11:06:24.062Z,21.90
2024-04-30T11:10:06.517Z,22.40
2024-04-30T11:13:49.214Z,22.90
2024-04-30T11:17:31.263Z,23.10
2024-04-30T11:21:13.541Z,23.00
2024-04-30T11:24:55.453Z,23.30
2024-04-30T11:28:37.616Z,24.00
2024-04-30T11:32:20.253Z,24.30
2024-04-30T11:36:02.331Z,24.60
2024-04-30T11:39:44.230Z,25.20
2024-04-30T11:43:26.475Z,25.90
2024-04-30T11:47:09.194Z,26.50
2024-04-30T11:50:51.163Z,26.30
2024-04-30T11:54:36.509Z,25.70
2024-04-30T11:58:18.489Z,25.60
2024-04-30T12:02:00.470Z,25.50
2024-04-30T12:05:42.445Z,25.60
2024-04-30T12:09:24.383Z,25.80
2024-04-30T12:13:07.547Z,26.00
2024-04-30T12:16:50.580Z,26.40
2024-04-30T12:20:32.653Z,26.70
2024-04-30T12:24:14.632Z,26.80
2024-04-30T12:27:57.145Z,27.00
2024-04-30T12:31:42.582Z,27.20
2024-04-30T12:35:24.667Z,27.70
2024-04-30T12:39:06.632Z,27.90
2024-04-30T12:42:48.613Z,28.00
2024-04-30T12:46:30.868Z,28.50
2024-04-30T12:50:13.066Z,28.50
2024-04-30T12:53:56.427Z,28.10
2024-04-30T12:57:38.385Z,27.30
2024-04-30T13:01:22.447Z,26.40
2024-04-30T13:05:06.725Z,25.70
2024-04-30T13:08:48.824Z,25.40
2024-04-30T13:12:30.741Z,25.00
2024-04-30T13:16:13.070Z,24.60
2024-04-30T13:19:55.204Z,24.10
2024-04-30T13:23:37.786Z,23.90
2024-04-30T13:27:19.791Z,23.60
2024-04-30T13:31:02.667Z,23.10
2024-04-30T13:34:44.691Z,22.80
2024-04-30T13:38:26.778Z,22.70
2024-04-30T13:42:08.975Z,22.80
2024-04-30T13:45:50.923Z,23.20
2024-04-30T13:49:32.895Z,23.30
2024-04-30T13:53:14.999Z,23.00
2024-04-30T13:56:56.999Z,22.70
2024-04-30T14:00:39.044Z,22.20
2024-04-30T14:04:21.126Z,21.80
2024-04-30T14:08:03.190Z,21.60
2024-04-30T14:11:45.128Z,21.60
2024-04-30T14:15:27.097Z,21.30
2024-04-30T14:19:09.041Z,21.10
2024-04-30T14:22:51.343Z,20.80
2024-04-30T14:26:33.248Z,20.90
2024-04-30T14:30:15.219Z,21.50
2024-04-30T14:33:57.111Z,22.20
2024-04-30T14:37:39.446Z,22.60
2024-04-30T14:41:21.458Z,22.60
2024-04-30T14:45:03.498Z,22.40
2024-04-30T14:48:45.512Z,22.00
2024-04-30T14:52:27.494Z,21.60
2024-04-30T14:56:13.318Z,21.40
2024-04-30T14:59:55.375Z,21.10
2024-04-30T15:03:37.515Z,20.80
2024-04-30T15:07:20.455Z,20.50
2024-04-30T15:11:02.392Z,20.30
2024-04-30T15:14:44.326Z,20.20
2024-04-30T15:18:26.234Z,20.00
2024-04-30T15:22:09.721Z,20.00
2024-04-30T15:25:51.770Z,20.10
2024-04-30T15:29:33.775Z,20.10
2024-04-30T15:33:15.846Z,20.20
2024-04-30T15:36:57.871Z,20.30
2024-04-30T15:40:39.807Z,20.50
2024-04-30T15:44:21.872Z,20.50
2024-04-30T15:48:07.205Z,20.40
2024-04-30T15:51:51.498Z,20.30
2024-04-30T15:55:33.462Z,20.30
2024-04-30T15:59:15.426Z,20.20
2024-04-30T16:02:57.471Z,20.00
2024-04-30T16:06:40.953Z,19.90
2024-04-30T16:10:23.019Z,19.80
2024-04-30T16:14:04.926Z,19.60
2024-04-30T16:17:47.915Z,19.50
2024-04-30T16:21:29.901Z,19.20
2024-04-30T16:25:11.890Z,19.10
2024-04-30T16:28:54.174Z,18.90
2024-04-30T16:32:36.286Z,18.80
2024-04-30T16:36:24.406Z,18.70
2024-04-30T16:40:07.382Z,18.60
2024-04-30T16:43:49.351Z,18.50
2024-04-30T16:47:31.341Z,18.40
2024-04-30T16:51:14.596Z,18.20
2024-04-30T16:54:56.567Z,18.10
2024-04-30T16:58:38.617Z,17.90
2024-04-30T17:02:20.595Z,17.70
2024-04-30T17:06:06.262Z,17.60
2024-04-30T17:09:48.344Z,17.50
2024-04-30T17:13:30.273Z,17.30
2024-04-30T17:17:12.297Z,17.20
2024-04-30T17:20:59.261Z,17.10
2024-04-30T17:24:41.537Z,17.00
2024-04-30T17:28:23.616Z,16.90
2024-04-30T17:32:06.147Z,16.80
2024-04-30T17:35:48.072Z,16.80
2024-04-30T17:39:30.164Z,16.80
2024-04-30T17:43:13.163Z,16.80
2024-04-30T17:46:55.372Z,16.80
2024-04-30T17:50:38.382Z,16.80
2024-04-30T17:54:20.451Z,16.80
2024-04-30T17:58:02.645Z,16.60
2024-04-30T18:01:45.277Z,16.50
2024-04-30T18:05:27.396Z,16.30
2024-04-30T18:09:09.396Z,16.20
2024-04-30T18:12:51.442Z,16.00
2024-04-30T18:16:33.585Z,16.10
2024-04-30T18:20:15.506Z,16.00
2024-04-30T18:23:57.559Z,16.00
2024-04-30T18:27:39.497Z,16.00
2024-04-30T18:31:22.723Z,16.00
2024-04-30T18:35:04.958Z,16.00
2024-04-30T18:38:46.964Z,15.90
2024-04-30T18:42:28.979Z,15.80
2024-04-30T18:46:14.784Z,15.70
2024-04-30T18:49:56.712Z,15.60
2024-04-30T18:53:41.472Z,15.40
2024-04-30T18:57:23.469Z,15.40
2024-04-30T19:01:05.990Z,15.20
2024-04-30T19:04:48.063Z,15.20
2024-04-30T19:08:30.301Z,15.10
2024-04-30T19:12:12.242Z,15.10
2024-04-30T19:15:54.879Z,15.00
2024-04-30T19:19:36.844Z,15.00
2024-04-30T19:23:32.176Z,15.00
2024-04-30T19:27:14.813Z,14.90
2024-04-30T19:30:59.103Z,14.90
2024-04-30T19:34:41.227Z,14.80
2024-04-30T19:38:23.260Z,14.80
2024-04-30T19:42:05.386Z,14.80
2024-04-30T19:45:47.670Z,14.70
2024-04-30T19:49:29.752Z,14.60
2024-04-30T19:53:11.776Z,14.60
2024-04-30T19:56:53.674Z,14.50
2024-04-30T20:00:36.208Z,14.40
2024-04-30T20:04:18.278Z,14.30
2024-04-30T20:08:00.712Z,14.30
2024-04-30T20:11:43.109Z,14.30
2024-04-30T20:15:25.141Z,14.30
2024-04-30T20:19:07.205Z,14.20
2024-04-30T20:22:49.180Z,14.20
2024-04-30T20:26:31.086Z,14.20
2024-04-30T20:30:13.010Z,14.20
2024-04-30T20:33:56.523Z,14.10
2024-04-30T20:37:38.720Z,14.00
2024-04-30T20:41:21.961Z,13.90
2024-04-30T20:45:04.111Z,13.90
2024-04-30T20:48:46.464Z,13.90
2024-04-30T20:52:28.515Z,13.80
2024-04-30T20:56:10.809Z,13.80
2024-04-30T20:59:52.765Z,13.80
2024-04-30T21:03:34.760Z,13.80
2024-04-30T21:07:16.750Z,13.80
2024-04-30T21:10:58.688Z,13.80
2024-04-30T21:14:43.700Z,13.70
2024-04-30T21:18:25.706Z,13.70
2024-04-30T21:22:07.848Z,13.60
2024-04-30T21:25:49.838Z,13.60
2024-04-30T21:29:31.859Z,13.50
2024-04-30T21:33:14.244Z,13.50
2024-04-30T21:36:56.856Z,13.50
2024-04-30T21:40:38.932Z,13.40
2024-04-30T21:44:20.940Z,13.40
2024-04-30T21:48:03.005Z,13.30
2024-04-30T21:51:46.666Z,13.30
2024-04-30T21:55:30.328Z,13.20
2024-04-30T21:59:12.286Z,13.20
2024-04-30T22:03:02.191Z,13.20
2024-04-30T22:06:45.320Z,13.20
2024-04-30T22:10:27.225Z,13.20
2024-04-30T22:14:10.630Z,13.20
2024-04-30T22:17:52.659Z,13.20
2024-04-30T22:21:34.831Z,13.20
2024-04-30T22:25:16.958Z,13.20
2024-04-30T22:28:58.885Z,13.20
2024-04-30T22:32:40.849Z,13.20
2024-04-30T22:36:22.914Z,13.10
2024-04-30T22:40:05.631Z,13.10
2024-04-30T22:43:49.160Z,13.10
2024-04-30T22:47:31.271Z,13.10
2024-04-30T22:51:17.789Z,13.10
2024-04-30T22:54:59.761Z,13.10
2024-04-30T22:58:41.672Z,13.00
2024-04-30T23:02:23.618Z,13.00
2024-04-30T23:06:05.801Z,12.90
2024-04-30T23:09:47.760Z,12.90
2024-04-30T23:13:29.814Z,12.80
2024-04-30T23:17:11.832Z,12.80
2024-04-30T23:20:54.124Z,12.80
2024-04-30T23:24:36.098Z,12.80
2024-04-30T23:28:18.097Z,12.70
2024-04-30T23:32:00.272Z,12.70
2024-04-30T23:35:42.333Z,12.60
2024-04-30T23:39:24.325Z,12.60
2024-04-30T23:43:06.797Z,12.60
2024-04-30T23:46:48.810Z,12.70
2024-04-30T23:50:30.726Z,12.70
2024-04-30T23:54:12.732Z,12.60
2024-04-30T23:57:54.881Z,12.50
